Terryville, New York
Current Conditions -  °F | °C
As of 12:56 PM on Saturday 25 Oct 2014 (Local Time) from KISP Reporting Station
Few Clouds Few Clouds  
Wind Chill: 64°   Ceiling: Unl
Heat Index: 64°   Visibility: 10mi
Dew Point: 42°   Wind: 13mph
Humidity: 45%   Direction: 280°W
Pressure: 29.75"   Gusts: NA
Location:  40.91°N, 73.07°W
Report Text: KISP 251656Z 28011KT 10SM FEW250 18/06 A2975 RMK AO2 SLP073 T01780056
Loading
Personal Weather Stations






























Interactive Weather Map New forecast layout! Learn more

10-Day Weather Forecast

Advertisements
Track Severe Weather on mobile